sensor_id;sensor_type;location;lat;lon;timestamp;temperature;humidity
40253;DHT22;25972;51.854;4.534;2022-10-23T00:03:44;13.30;99.90
40253;DHT22;25972;51.854;4.534;2022-10-23T00:06:12;13.30;99.90
40253;DHT22;25972;51.854;4.534;2022-10-23T00:08:39;13.30;99.90
40253;DHT22;25972;51.854;4.534;2022-10-23T00:11:10;13.30;99.90
40253;DHT22;25972;51.854;4.534;2022-10-23T00:13:36;13.20;99.90
40253;DHT22;25972;51.854;4.534;2022-10-23T00:16:02;13.20;99.90
40253;DHT22;25972;51.854;4.534;2022-10-23T00:18:28;13.30;99.90
40253;DHT22;25972;51.854;4.534;2022-10-23T00:20:54;13.30;99.90
40253;DHT22;25972;51.854;4.534;2022-10-23T00:23:20;13.30;99.90
40253;DHT22;25972;51.854;4.534;2022-10-23T00:25:46;13.30;99.90
40253;DHT22;25972;51.854;4.534;2022-10-23T00:28:12;13.20;99.90
40253;DHT22;25972;51.854;4.534;2022-10-23T00:30:37;13.30;99.90
40253;DHT22;25972;51.854;4.534;2022-10-23T00:33:03;13.20;99.90
40253;DHT22;25972;51.854;4.534;2022-10-23T00:35:29;13.20;99.90
40253;DHT22;25972;51.854;4.534;2022-10-23T00:37:55;13.30;99.90
40253;DHT22;25972;51.854;4.534;2022-10-23T00:40:21;13.20;99.90
40253;DHT22;25972;51.854;4.534;2022-10-23T00:42:46;13.30;99.90
40253;DHT22;25972;51.854;4.534;2022-10-23T00:45:24;13.30;99.90
40253;DHT22;25972;51.854;4.534;2022-10-23T00:47:51;13.30;99.90
40253;DHT22;25972;51.854;4.534;2022-10-23T00:50:18;13.20;99.90
40253;DHT22;25972;51.854;4.534;2022-10-23T00:52:51;13.30;99.90
40253;DHT22;25972;51.854;4.534;2022-10-23T00:55:21;13.30;99.90
40253;DHT22;25972;51.854;4.534;2022-10-23T00:57:48;13.30;99.90
40253;DHT22;25972;51.854;4.534;2022-10-23T01:00:29;13.20;99.90
40253;DHT22;25972;51.854;4.534;2022-10-23T01:02:58;13.20;99.90
40253;DHT22;25972;51.854;4.534;2022-10-23T01:05:35;13.20;99.90
40253;DHT22;25972;51.854;4.534;2022-10-23T01:08:21;13.20;99.90
40253;DHT22;25972;51.854;4.534;2022-10-23T01:10:55;13.10;99.90
40253;DHT22;25972;51.854;4.534;2022-10-23T01:13:37;13.20;99.90
40253;DHT22;25972;51.854;4.534;2022-10-23T01:16:10;13.10;99.90
40253;DHT22;25972;51.854;4.534;2022-10-23T01:18:44;13.10;99.90
40253;DHT22;25972;51.854;4.534;2022-10-23T01:21:42;13.00;99.90
40253;DHT22;25972;51.854;4.534;2022-10-23T01:24:24;13.00;99.90
40253;DHT22;25972;51.854;4.534;2022-10-23T01:27:13;13.00;99.90
40253;DHT22;25972;51.854;4.534;2022-10-23T01:29:51;13.10;99.90
40253;DHT22;25972;51.854;4.534;2022-10-23T01:32:44;13.00;99.90
40253;DHT22;25972;51.854;4.534;2022-10-23T01:35:37;13.00;99.90
40253;DHT22;25972;51.854;4.534;2022-10-23T01:38:18;13.10;99.90
40253;DHT22;25972;51.854;4.534;2022-10-23T01:40:58;13.10;99.90
40253;DHT22;25972;51.854;4.534;2022-10-23T01:46:11;13.10;99.90
40253;DHT22;25972;51.854;4.534;2022-10-23T01:48:40;13.10;99.90
40253;DHT22;25972;51.854;4.534;2022-10-23T01:51:11;13.10;99.90
40253;DHT22;25972;51.854;4.534;2022-10-23T01:53:41;13.10;99.90
40253;DHT22;25972;51.854;4.534;2022-10-23T01:56:17;13.10;99.90
40253;DHT22;25972;51.854;4.534;2022-10-23T01:58:47;13.20;99.90
40253;DHT22;25972;51.854;4.534;2022-10-23T02:01:15;13.20;99.90
40253;DHT22;25972;51.854;4.534;2022-10-23T02:03:47;13.10;99.90
40253;DHT22;25972;51.854;4.534;2022-10-23T02:06:14;13.20;99.90
40253;DHT22;25972;51.854;4.534;2022-10-23T02:08:41;13.20;99.90
40253;DHT22;25972;51.854;4.534;2022-10-23T02:11:09;13.10;99.90
40253;DHT22;25972;51.854;4.534;2022-10-23T02:14:32;13.10;99.90
40253;DHT22;25972;51.854;4.534;2022-10-23T02:17:09;13.10;99.90
40253;DHT22;25972;51.854;4.534;2022-10-23T02:19:46;13.10;99.90
40253;DHT22;25972;51.854;4.534;2022-10-23T02:24:52;13.10;99.90
40253;DHT22;25972;51.854;4.534;2022-10-23T02:27:34;13.10;99.90
40253;DHT22;25972;51.854;4.534;2022-10-23T02:30:08;13.00;99.90
40253;DHT22;25972;51.854;4.534;2022-10-23T02:32:37;13.10;99.90
40253;DHT22;25972;51.854;4.534;2022-10-23T02:35:05;13.10;99.90
40253;DHT22;25972;51.854;4.534;2022-10-23T02:37:31;13.10;99.90
40253;DHT22;25972;51.854;4.534;2022-10-23T02:39:58;13.10;99.90
40253;DHT22;25972;51.854;4.534;2022-10-23T02:42:38;13.10;99.90
40253;DHT22;25972;51.854;4.534;2022-10-23T02:45:33;13.10;99.90
40253;DHT22;25972;51.854;4.534;2022-10-23T02:48:18;13.00;99.90
40253;DHT22;25972;51.854;4.534;2022-10-23T02:53:45;13.10;99.90
40253;DHT22;25972;51.854;4.534;2022-10-23T02:56:34;13.10;99.90
40253;DHT22;25972;51.854;4.534;2022-10-23T02:59:22;13.10;99.90
40253;DHT22;25972;51.854;4.534;2022-10-23T03:01:56;13.00;99.90
40253;DHT22;25972;51.854;4.534;2022-10-23T03:04:25;13.10;99.90
40253;DHT22;25972;51.854;4.534;2022-10-23T03:06:52;13.00;99.90
40253;DHT22;25972;51.854;4.534;2022-10-23T03:09:18;13.10;99.90
40253;DHT22;25972;51.854;4.534;2022-10-23T03:11:44;13.00;99.90
40253;DHT22;25972;51.854;4.534;2022-10-23T03:14:12;13.00;99.90
40253;DHT22;25972;51.854;4.534;2022-10-23T03:16:38;13.00;99.90
40253;DHT22;25972;51.854;4.534;2022-10-23T03:19:04;13.10;99.90
40253;DHT22;25972;51.854;4.534;2022-10-23T03:21:30;13.00;99.90
40253;DHT22;25972;51.854;4.534;2022-10-23T03:23:56;13.00;99.90
40253;DHT22;25972;51.854;4.534;2022-10-23T03:26:32;13.00;99.90
40253;DHT22;25972;51.854;4.534;2022-10-23T03:28:58;13.00;99.90
40253;DHT22;25972;51.854;4.534;2022-10-23T03:31:23;12.90;99.90
40253;DHT22;25972;51.854;4.534;2022-10-23T03:33:54;13.00;99.90
40253;DHT22;25972;51.854;4.534;2022-10-23T03:36:20;12.90;99.90
40253;DHT22;25972;51.854;4.534;2022-10-23T03:38:46;13.00;99.90
40253;DHT22;25972;51.854;4.534;2022-10-23T03:41:12;12.90;99.90
40253;DHT22;25972;51.854;4.534;2022-10-23T03:43:38;13.00;99.90
40253;DHT22;25972;51.854;4.534;2022-10-23T03:46:05;13.00;99.90
40253;DHT22;25972;51.854;4.534;2022-10-23T03:48:34;13.00;99.90
40253;DHT22;25972;51.854;4.534;2022-10-23T03:51:04;13.00;99.90
40253;DHT22;25972;51.854;4.534;2022-10-23T03:53:30;12.90;99.90
40253;DHT22;25972;51.854;4.534;2022-10-23T03:55:56;12.90;99.90
40253;DHT22;25972;51.854;4.534;2022-10-23T03:58:23;13.00;99.90
40253;DHT22;25972;51.854;4.534;2022-10-23T04:00:49;13.00;99.90
40253;DHT22;25972;51.854;4.534;2022-10-23T04:03:15;13.00;99.90
40253;DHT22;25972;51.854;4.534;2022-10-23T04:05:41;12.90;99.90
40253;DHT22;25972;51.854;4.534;2022-10-23T04:08:08;13.00;99.90
40253;DHT22;25972;51.854;4.534;2022-10-23T04:10:34;13.00;99.90
40253;DHT22;25972;51.854;4.534;2022-10-23T04:12:59;13.00;99.90
40253;DHT22;25972;51.854;4.534;2022-10-23T04:15:26;13.00;99.90
40253;DHT22;25972;51.854;4.534;2022-10-23T04:17:52;13.00;99.90
40253;DHT22;25972;51.854;4.534;2022-10-23T04:20:18;13.00;99.90
40253;DHT22;25972;51.854;4.534;2022-10-23T04:22:44;12.90;99.90
40253;DHT22;25972;51.854;4.534;2022-10-23T04:25:10;13.00;99.90
40253;DHT22;25972;51.854;4.534;2022-10-23T04:27:36;13.00;99.90
40253;DHT22;25972;51.854;4.534;2022-10-23T04:30:03;13.00;99.90
40253;DHT22;25972;51.854;4.534;2022-10-23T04:32:29;12.90;99.90
40253;DHT22;25972;51.854;4.534;2022-10-23T04:34:56;13.00;99.90
40253;DHT22;25972;51.854;4.534;2022-10-23T04:37:22;12.90;99.90
40253;DHT22;25972;51.854;4.534;2022-10-23T04:39:48;12.90;99.90
40253;DHT22;25972;51.854;4.534;2022-10-23T04:42:14;12.90;99.90
40253;DHT22;25972;51.854;4.534;2022-10-23T04:44:40;12.90;99.90
40253;DHT22;25972;51.854;4.534;2022-10-23T04:47:06;12.90;99.90
40253;DHT22;25972;51.854;4.534;2022-10-23T04:49:38;12.80;99.90
40253;DHT22;25972;51.854;4.534;2022-10-23T04:52:39;12.80;99.90
40253;DHT22;25972;51.854;4.534;2022-10-23T04:55:28;12.90;99.90
40253;DHT22;25972;51.854;4.534;2022-10-23T04:58:09;12.80;99.90
40253;DHT22;25972;51.854;4.534;2022-10-23T05:00:35;12.80;99.90
40253;DHT22;25972;51.854;4.534;2022-10-23T05:03:01;12.80;99.90
40253;DHT22;25972;51.854;4.534;2022-10-23T05:05:34;12.80;99.90
40253;DHT22;25972;51.854;4.534;2022-10-23T05:08:18;12.80;99.90
40253;DHT22;25972;51.854;4.534;2022-10-23T05:11:07;12.80;99.90
40253;DHT22;25972;51.854;4.534;2022-10-23T05:13:38;12.80;99.90
40253;DHT22;25972;51.854;4.534;2022-10-23T05:16:05;12.80;99.90
40253;DHT22;25972;51.854;4.534;2022-10-23T05:18:37;12.80;99.90
40253;DHT22;25972;51.854;4.534;2022-10-23T05:21:09;12.80;99.90
40253;DHT22;25972;51.854;4.534;2022-10-23T05:23:40;12.80;99.90
40253;DHT22;25972;51.854;4.534;2022-10-23T05:26:07;12.90;99.90
40253;DHT22;25972;51.854;4.534;2022-10-23T05:28:34;12.90;99.90
40253;DHT22;25972;51.854;4.534;2022-10-23T05:31:03;12.80;99.90
40253;DHT22;25972;51.854;4.534;2022-10-23T05:33:30;12.80;99.90
40253;DHT22;25972;51.854;4.534;2022-10-23T05:35:57;12.80;99.90
40253;DHT22;25972;51.854;4.534;2022-10-23T05:38:24;12.80;99.90
40253;DHT22;25972;51.854;4.534;2022-10-23T05:40:51;12.80;99.90
40253;DHT22;25972;51.854;4.534;2022-10-23T05:43:19;12.80;99.90
40253;DHT22;25972;51.854;4.534;2022-10-23T05:46:02;12.70;99.90
40253;DHT22;25972;51.854;4.534;2022-10-23T05:49:03;12.80;99.90
40253;DHT22;25972;51.854;4.534;2022-10-23T05:52:10;12.80;99.90
40253;DHT22;25972;51.854;4.534;2022-10-23T05:54:59;12.80;99.90
40253;DHT22;25972;51.854;4.534;2022-10-23T05:57:57;12.80;99.90
40253;DHT22;25972;51.854;4.534;2022-10-23T06:00:46;12.80;99.90
40253;DHT22;25972;51.854;4.534;2022-10-23T06:03:32;12.80;99.90
40253;DHT22;25972;51.854;4.534;2022-10-23T06:05:57;12.80;99.90
40253;DHT22;25972;51.854;4.534;2022-10-23T06:08:33;12.80;99.90
40253;DHT22;25972;51.854;4.534;2022-10-23T06:11:07;12.70;99.90
40253;DHT22;25972;51.854;4.534;2022-10-23T06:13:34;12.80;99.90
40253;DHT22;25972;51.854;4.534;2022-10-23T06:16:10;12.80;99.90
40253;DHT22;25972;51.854;4.534;2022-10-23T06:18:37;12.80;99.90
40253;DHT22;25972;51.854;4.534;2022-10-23T06:21:09;12.80;99.90
40253;DHT22;25972;51.854;4.534;2022-10-23T06:23:36;12.70;99.90
40253;DHT22;25972;51.854;4.534;2022-10-23T06:26:18;12.80;99.90
40253;DHT22;25972;51.854;4.534;2022-10-23T06:29:07;12.80;99.90
40253;DHT22;25972;51.854;4.534;2022-10-23T06:31:34;12.70;99.90
40253;DHT22;25972;51.854;4.534;2022-10-23T06:34:01;12.80;99.90
40253;DHT22;25972;51.854;4.534;2022-10-23T06:36:29;12.70;99.90
40253;DHT22;25972;51.854;4.534;2022-10-23T06:39:04;12.70;99.90
40253;DHT22;25972;51.854;4.534;2022-10-23T06:41:48;12.80;99.90
40253;DHT22;25972;51.854;4.534;2022-10-23T06:44:34;12.80;99.90
40253;DHT22;25972;51.854;4.534;2022-10-23T06:47:07;12.80;99.90
40253;DHT22;25972;51.854;4.534;2022-10-23T06:49:53;12.80;99.90
40253;DHT22;25972;51.854;4.534;2022-10-23T06:52:19;12.80;99.90
40253;DHT22;25972;51.854;4.534;2022-10-23T06:54:46;12.80;99.90
40253;DHT22;25972;51.854;4.534;2022-10-23T06:57:19;12.80;99.90
40253;DHT22;25972;51.854;4.534;2022-10-23T06:59:45;12.80;99.90
40253;DHT22;25972;51.854;4.534;2022-10-23T07:02:11;12.90;99.90
40253;DHT22;25972;51.854;4.534;2022-10-23T07:04:38;12.90;99.90
40253;DHT22;25972;51.854;4.534;2022-10-23T07:07:10;12.90;99.90
40253;DHT22;25972;51.854;4.534;2022-10-23T07:09:43;13.00;99.90
40253;DHT22;25972;51.854;4.534;2022-10-23T07:12:20;13.00;99.90
40253;DHT22;25972;51.854;4.534;2022-10-23T07:14:52;13.10;99.90
40253;DHT22;25972;51.854;4.534;2022-10-23T07:17:18;13.10;99.90
40253;DHT22;25972;51.854;4.534;2022-10-23T07:19:45;13.20;99.90
40253;DHT22;25972;51.854;4.534;2022-10-23T07:22:13;13.20;99.90
40253;DHT22;25972;51.854;4.534;2022-10-23T07:24:59;13.20;99.90
40253;DHT22;25972;51.854;4.534;2022-10-23T07:27:35;13.30;99.90
40253;DHT22;25972;51.854;4.534;2022-10-23T07:30:02;13.30;99.90
40253;DHT22;25972;51.854;4.534;2022-10-23T07:32:33;13.30;99.90
40253;DHT22;25972;51.854;4.534;2022-10-23T07:35:18;13.30;99.90
40253;DHT22;25972;51.854;4.534;2022-10-23T07:38:05;13.40;99.90
40253;DHT22;25972;51.854;4.534;2022-10-23T07:40:36;13.40;99.90
40253;DHT22;25972;51.854;4.534;2022-10-23T07:43:02;13.50;99.90
40253;DHT22;25972;51.854;4.534;2022-10-23T07:45:29;13.60;99.90
40253;DHT22;25972;51.854;4.534;2022-10-23T07:47:56;13.60;99.90
40253;DHT22;25972;51.854;4.534;2022-10-23T07:50:25;13.60;99.90
40253;DHT22;25972;51.854;4.534;2022-10-23T07:52:51;13.70;99.90
40253;DHT22;25972;51.854;4.534;2022-10-23T07:55:17;13.80;99.90
40253;DHT22;25972;51.854;4.534;2022-10-23T07:57:49;13.80;99.90
40253;DHT22;25972;51.854;4.534;2022-10-23T08:00:31;13.80;99.90
40253;DHT22;25972;51.854;4.534;2022-10-23T08:03:10;13.80;99.90
40253;DHT22;25972;51.854;4.534;2022-10-23T08:05:38;13.90;99.90
40253;DHT22;25972;51.854;4.534;2022-10-23T08:08:04;13.80;99.90
40253;DHT22;25972;51.854;4.534;2022-10-23T08:10:30;13.90;99.90
40253;DHT22;25972;51.854;4.534;2022-10-23T08:12:57;13.90;99.90
40253;DHT22;25972;51.854;4.534;2022-10-23T08:15:42;13.90;99.90
40253;DHT22;25972;51.854;4.534;2022-10-23T08:18:31;14.00;99.90
40253;DHT22;25972;51.854;4.534;2022-10-23T08:21:02;13.90;99.90
40253;DHT22;25972;51.854;4.534;2022-10-23T08:23:29;14.00;99.90
40253;DHT22;25972;51.854;4.534;2022-10-23T08:25:57;14.00;99.90
40253;DHT22;25972;51.854;4.534;2022-10-23T08:28:23;14.00;99.90
40253;DHT22;25972;51.854;4.534;2022-10-23T08:30:54;14.10;99.90
40253;DHT22;25972;51.854;4.534;2022-10-23T08:33:20;14.10;99.90
40253;DHT22;25972;51.854;4.534;2022-10-23T08:35:46;14.10;99.90
40253;DHT22;25972;51.854;4.534;2022-10-23T08:38:15;14.20;99.90
40253;DHT22;25972;51.854;4.534;2022-10-23T08:40:47;14.20;99.90
40253;DHT22;25972;51.854;4.534;2022-10-23T08:43:36;14.30;99.90
40253;DHT22;25972;51.854;4.534;2022-10-23T08:46:24;14.30;99.90
40253;DHT22;25972;51.854;4.534;2022-10-23T08:49:19;14.30;99.90
40253;DHT22;25972;51.854;4.534;2022-10-23T08:51:55;14.30;99.90
40253;DHT22;25972;51.854;4.534;2022-10-23T08:54:27;14.30;99.90
40253;DHT22;25972;51.854;4.534;2022-10-23T08:57:14;14.30;99.90
40253;DHT22;25972;51.854;4.534;2022-10-23T08:59:47;14.30;99.90
40253;DHT22;25972;51.854;4.534;2022-10-23T09:02:17;14.40;99.90
40253;DHT22;25972;51.854;4.534;2022-10-23T09:04:47;14.40;99.90
40253;DHT22;25972;51.854;4.534;2022-10-23T09:18:47;14.50;99.90
40253;DHT22;25972;51.854;4.534;2022-10-23T09:21:14;14.60;99.90
40253;DHT22;25972;51.854;4.534;2022-10-23T09:23:40;14.60;99.90
40253;DHT22;25972;51.854;4.534;2022-10-23T09:26:16;14.60;99.90
40253;DHT22;25972;51.854;4.534;2022-10-23T09:28:49;14.60;99.90
40253;DHT22;25972;51.854;4.534;2022-10-23T09:31:16;14.60;99.90
40253;DHT22;25972;51.854;4.534;2022-10-23T09:33:56;14.70;99.90
40253;DHT22;25972;51.854;4.534;2022-10-23T09:36:23;14.70;99.90
40253;DHT22;25972;51.854;4.534;2022-10-23T09:38:52;14.80;99.90
40253;DHT22;25972;51.854;4.534;2022-10-23T09:43:46;14.80;99.90
40253;DHT22;25972;51.854;4.534;2022-10-23T09:46:12;14.90;99.90
40253;DHT22;25972;51.854;4.534;2022-10-23T09:48:39;14.90;99.90
40253;DHT22;25972;51.854;4.534;2022-10-23T09:51:16;15.00;99.90
40253;DHT22;25972;51.854;4.534;2022-10-23T09:53:59;15.00;99.90
40253;DHT22;25972;51.854;4.534;2022-10-23T09:56:26;15.00;99.90
40253;DHT22;25972;51.854;4.534;2022-10-23T09:58:58;15.00;99.90
40253;DHT22;25972;51.854;4.534;2022-10-23T10:01:33;15.10;99.90
40253;DHT22;25972;51.854;4.534;2022-10-23T10:04:39;15.10;99.90
40253;DHT22;25972;51.854;4.534;2022-10-23T10:07:20;15.20;99.90
40253;DHT22;25972;51.854;4.534;2022-10-23T10:09:47;15.20;99.90
40253;DHT22;25972;51.854;4.534;2022-10-23T10:12:52;15.30;99.90
40253;DHT22;25972;51.854;4.534;2022-10-23T10:15:28;15.30;99.90
40253;DHT22;25972;51.854;4.534;2022-10-23T10:18:06;15.30;99.90
40253;DHT22;25972;51.854;4.534;2022-10-23T10:23:31;15.50;99.90
40253;DHT22;25972;51.854;4.534;2022-10-23T10:34:32;15.70;99.90
40253;DHT22;25972;51.854;4.534;2022-10-23T10:37:25;15.70;99.90
40253;DHT22;25972;51.854;4.534;2022-10-23T10:45:25;16.00;99.90
40253;DHT22;25972;51.854;4.534;2022-10-23T10:48:05;16.00;99.90
40253;DHT22;25972;51.854;4.534;2022-10-23T10:51:06;16.10;99.90
40253;DHT22;25972;51.854;4.534;2022-10-23T10:54:11;16.20;99.90
40253;DHT22;25972;51.854;4.534;2022-10-23T10:56:43;16.20;99.90
40253;DHT22;25972;51.854;4.534;2022-10-23T10:59:30;16.30;99.90
40253;DHT22;25972;51.854;4.534;2022-10-23T11:04:45;16.50;99.90
40253;DHT22;25972;51.854;4.534;2022-10-23T11:07:21;16.50;99.90
40253;DHT22;25972;51.854;4.534;2022-10-23T11:09:48;16.60;99.90
40253;DHT22;25972;51.854;4.534;2022-10-23T11:12:20;16.70;99.90
40253;DHT22;25972;51.854;4.534;2022-10-23T11:14:48;16.70;99.90
40253;DHT22;25972;51.854;4.534;2022-10-23T11:17:18;16.80;99.90
40253;DHT22;25972;51.854;4.534;2022-10-23T11:20:02;16.90;99.90
40253;DHT22;25972;51.854;4.534;2022-10-23T11:22:36;17.00;99.90
40253;DHT22;25972;51.854;4.534;2022-10-23T11:27:56;17.10;99.90
40253;DHT22;25972;51.854;4.534;2022-10-23T11:31:03;17.10;99.90
40253;DHT22;25972;51.854;4.534;2022-10-23T11:33:51;17.20;99.90
40253;DHT22;25972;51.854;4.534;2022-10-23T11:39:17;17.30;99.90
40253;DHT22;25972;51.854;4.534;2022-10-23T11:41:56;17.40;99.90
40253;DHT22;25972;51.854;4.534;2022-10-23T11:44:25;17.50;99.90
40253;DHT22;25972;51.854;4.534;2022-10-23T11:52:38;17.60;99.90
40253;DHT22;25972;51.854;4.534;2022-10-23T11:55:16;17.60;99.90
40253;DHT22;25972;51.854;4.534;2022-10-23T11:57:56;17.70;99.90
40253;DHT22;25972;51.854;4.534;2022-10-23T12:00:31;17.70;99.90
40253;DHT22;25972;51.854;4.534;2022-10-23T12:02:58;17.80;99.90
40253;DHT22;25972;51.854;4.534;2022-10-23T12:05:32;17.90;99.90
40253;DHT22;25972;51.854;4.534;2022-10-23T12:08:01;17.90;99.90
40253;DHT22;25972;51.854;4.534;2022-10-23T12:15:22;18.00;99.90
40253;DHT22;25972;51.854;4.534;2022-10-23T12:17:49;18.00;99.90
40253;DHT22;25972;51.854;4.534;2022-10-23T12:28:38;18.20;99.90
40253;DHT22;25972;51.854;4.534;2022-10-23T12:36:57;18.40;99.90
40253;DHT22;25972;51.854;4.534;2022-10-23T12:39:35;18.40;99.90
40253;DHT22;25972;51.854;4.534;2022-10-23T12:42:14;18.50;99.90
40253;DHT22;25972;51.854;4.534;2022-10-23T12:44:40;18.50;99.90
40253;DHT22;25972;51.854;4.534;2022-10-23T12:47:10;18.50;99.90
40253;DHT22;25972;51.854;4.534;2022-10-23T12:49:48;18.50;99.90
40253;DHT22;25972;51.854;4.534;2022-10-23T12:52:16;18.50;99.90
40253;DHT22;25972;51.854;4.534;2022-10-23T12:54:43;18.50;99.90
40253;DHT22;25972;51.854;4.534;2022-10-23T12:57:27;18.60;99.90
40253;DHT22;25972;51.854;4.534;2022-10-23T12:59:56;18.70;99.90
40253;DHT22;25972;51.854;4.534;2022-10-23T13:02:30;18.70;99.90
40253;DHT22;25972;51.854;4.534;2022-10-23T13:05:02;18.70;99.90
40253;DHT22;25972;51.854;4.534;2022-10-23T13:07:35;18.70;99.90
40253;DHT22;25972;51.854;4.534;2022-10-23T13:10:03;18.70;99.90
40253;DHT22;25972;51.854;4.534;2022-10-23T13:12:34;18.70;99.90
40253;DHT22;25972;51.854;4.534;2022-10-23T13:17:38;18.80;99.90
40253;DHT22;25972;51.854;4.534;2022-10-23T13:22:43;18.80;99.90
40253;DHT22;25972;51.854;4.534;2022-10-23T13:25:23;18.80;99.90
40253;DHT22;25972;51.854;4.534;2022-10-23T13:27:49;18.90;99.90
40253;DHT22;25972;51.854;4.534;2022-10-23T13:30:30;18.90;99.90
40253;DHT22;25972;51.854;4.534;2022-10-23T13:32:57;19.00;99.90
40253;DHT22;25972;51.854;4.534;2022-10-23T13:35:23;19.00;99.90
40253;DHT22;25972;51.854;4.534;2022-10-23T13:37:48;19.00;99.90
40253;DHT22;25972;51.854;4.534;2022-10-23T13:40:26;19.00;99.90
40253;DHT22;25972;51.854;4.534;2022-10-23T13:42:53;19.00;99.90
40253;DHT22;25972;51.854;4.534;2022-10-23T13:45:23;19.00;99.90
40253;DHT22;25972;51.854;4.534;2022-10-23T13:47:49;19.00;99.90
40253;DHT22;25972;51.854;4.534;2022-10-23T13:50:15;19.00;99.90
40253;DHT22;25972;51.854;4.534;2022-10-23T13:52:41;19.00;99.90
40253;DHT22;25972;51.854;4.534;2022-10-23T13:57:45;19.10;99.90
40253;DHT22;25972;51.854;4.534;2022-10-23T14:00:11;19.20;99.90
40253;DHT22;25972;51.854;4.534;2022-10-23T14:02:37;19.30;99.90
40253;DHT22;25972;51.854;4.534;2022-10-23T14:05:03;19.30;99.90
40253;DHT22;25972;51.854;4.534;2022-10-23T14:07:29;19.30;99.90
40253;DHT22;25972;51.854;4.534;2022-10-23T14:09:54;19.40;99.90
40253;DHT22;25972;51.854;4.534;2022-10-23T14:12:20;19.40;99.90
40253;DHT22;25972;51.854;4.534;2022-10-23T14:14:50;19.30;99.90
40253;DHT22;25972;51.854;4.534;2022-10-23T14:17:16;19.30;99.90
40253;DHT22;25972;51.854;4.534;2022-10-23T14:19:42;19.30;99.90
40253;DHT22;25972;51.854;4.534;2022-10-23T14:22:08;19.30;99.90
40253;DHT22;25972;51.854;4.534;2022-10-23T14:24:34;19.30;99.90
40253;DHT22;25972;51.854;4.534;2022-10-23T14:27:00;19.30;99.90
40253;DHT22;25972;51.854;4.534;2022-10-23T14:29:26;19.20;99.90
40253;DHT22;25972;51.854;4.534;2022-10-23T14:31:52;19.20;99.90
40253;DHT22;25972;51.854;4.534;2022-10-23T14:34:18;19.20;99.90
40253;DHT22;25972;51.854;4.534;2022-10-23T14:36:43;19.10;99.90
40253;DHT22;25972;51.854;4.534;2022-10-23T14:39:10;19.10;99.90
40253;DHT22;25972;51.854;4.534;2022-10-23T14:41:35;19.10;99.90
40253;DHT22;25972;51.854;4.534;2022-10-23T14:44:03;19.00;99.90
40253;DHT22;25972;51.854;4.534;2022-10-23T14:46:29;19.00;99.90
40253;DHT22;25972;51.854;4.534;2022-10-23T14:48:55;19.00;99.90
40253;DHT22;25972;51.854;4.534;2022-10-23T14:51:26;18.90;99.90
40253;DHT22;25972;51.854;4.534;2022-10-23T14:53:59;18.90;99.90
40253;DHT22;25972;51.854;4.534;2022-10-23T14:56:27;18.80;99.90
40253;DHT22;25972;51.854;4.534;2022-10-23T14:58:53;18.80;99.90
40253;DHT22;25972;51.854;4.534;2022-10-23T15:01:19;18.70;99.90
40253;DHT22;25972;51.854;4.534;2022-10-23T15:03:45;18.70;99.90
40253;DHT22;25972;51.854;4.534;2022-10-23T15:06:11;18.60;99.90
40253;DHT22;25972;51.854;4.534;2022-10-23T15:08:37;18.60;99.90
40253;DHT22;25972;51.854;4.534;2022-10-23T15:11:04;18.60;99.90
40253;DHT22;25972;51.854;4.534;2022-10-23T15:13:30;18.50;99.90
40253;DHT22;25972;51.854;4.534;2022-10-23T15:16:04;18.50;99.90
40253;DHT22;25972;51.854;4.534;2022-10-23T15:18:30;18.50;99.90
40253;DHT22;25972;51.854;4.534;2022-10-23T15:20:56;18.50;99.90
40253;DHT22;25972;51.854;4.534;2022-10-23T15:23:22;18.40;99.90
40253;DHT22;25972;51.854;4.534;2022-10-23T15:25:55;18.40;99.90
40253;DHT22;25972;51.854;4.534;2022-10-23T15:28:21;18.30;99.90
40253;DHT22;25972;51.854;4.534;2022-10-23T15:30:47;18.30;99.90
40253;DHT22;25972;51.854;4.534;2022-10-23T15:33:16;18.30;99.90
40253;DHT22;25972;51.854;4.534;2022-10-23T15:35:42;18.20;99.90
40253;DHT22;25972;51.854;4.534;2022-10-23T15:38:08;18.20;99.90
40253;DHT22;25972;51.854;4.534;2022-10-23T15:40:33;18.20;99.90
40253;DHT22;25972;51.854;4.534;2022-10-23T15:42:59;18.20;99.90
40253;DHT22;25972;51.854;4.534;2022-10-23T15:45:25;18.10;99.90
40253;DHT22;25972;51.854;4.534;2022-10-23T15:47:50;18.10;99.90
40253;DHT22;25972;51.854;4.534;2022-10-23T15:50:16;18.10;99.90
40253;DHT22;25972;51.854;4.534;2022-10-23T15:52:42;18.10;99.90
40253;DHT22;25972;51.854;4.534;2022-10-23T15:55:08;18.00;99.90
40253;DHT22;25972;51.854;4.534;2022-10-23T15:57:38;18.10;99.90
40253;DHT22;25972;51.854;4.534;2022-10-23T16:00:05;18.10;99.90
40253;DHT22;25972;51.854;4.534;2022-10-23T16:02:34;18.10;99.90
40253;DHT22;25972;51.854;4.534;2022-10-23T16:05:00;18.00;99.90
40253;DHT22;25972;51.854;4.534;2022-10-23T16:07:26;18.00;99.90
40253;DHT22;25972;51.854;4.534;2022-10-23T16:09:52;18.00;99.90
40253;DHT22;25972;51.854;4.534;2022-10-23T16:12:18;18.00;99.90
40253;DHT22;25972;51.854;4.534;2022-10-23T16:14:44;18.00;99.90
40253;DHT22;25972;51.854;4.534;2022-10-23T16:17:10;18.00;99.90
40253;DHT22;25972;51.854;4.534;2022-10-23T16:19:39;18.00;99.90
40253;DHT22;25972;51.854;4.534;2022-10-23T16:22:05;18.00;99.90
40253;DHT22;25972;51.854;4.534;2022-10-23T16:24:31;17.90;99.90
40253;DHT22;25972;51.854;4.534;2022-10-23T16:26:57;17.90;99.90
40253;DHT22;25972;51.854;4.534;2022-10-23T16:29:25;17.90;99.90
40253;DHT22;25972;51.854;4.534;2022-10-23T16:31:52;17.90;99.90
40253;DHT22;25972;51.854;4.534;2022-10-23T16:34:18;17.90;99.90
40253;DHT22;25972;51.854;4.534;2022-10-23T16:36:45;17.90;99.90
40253;DHT22;25972;51.854;4.534;2022-10-23T16:39:31;17.90;99.90
40253;DHT22;25972;51.854;4.534;2022-10-23T16:42:16;17.90;99.90
40253;DHT22;25972;51.854;4.534;2022-10-23T16:45:06;17.90;99.90
40253;DHT22;25972;51.854;4.534;2022-10-23T16:47:32;17.80;99.90
40253;DHT22;25972;51.854;4.534;2022-10-23T16:49:58;17.80;99.90
40253;DHT22;25972;51.854;4.534;2022-10-23T16:52:26;17.80;99.90
40253;DHT22;25972;51.854;4.534;2022-10-23T16:54:52;17.80;99.90
40253;DHT22;25972;51.854;4.534;2022-10-23T16:57:17;17.80;99.90
40253;DHT22;25972;51.854;4.534;2022-10-23T16:59:43;17.80;99.90
40253;DHT22;25972;51.854;4.534;2022-10-23T17:02:10;17.70;99.90
40253;DHT22;25972;51.854;4.534;2022-10-23T17:04:36;17.70;99.90
40253;DHT22;25972;51.854;4.534;2022-10-23T17:07:03;17.70;99.90
40253;DHT22;25972;51.854;4.534;2022-10-23T17:09:29;17.60;99.90
40253;DHT22;25972;51.854;4.534;2022-10-23T17:11:57;17.60;99.90
40253;DHT22;25972;51.854;4.534;2022-10-23T17:14:23;17.60;99.90
40253;DHT22;25972;51.854;4.534;2022-10-23T17:16:55;17.60;99.90
40253;DHT22;25972;51.854;4.534;2022-10-23T17:19:23;17.50;99.90
40253;DHT22;25972;51.854;4.534;2022-10-23T17:21:49;17.50;99.90